createdAt,value
2023-01-29T00:00:48.521Z,1.65
2023-01-29T00:04:40.297Z,0.43
2023-01-29T00:08:12.338Z,0.50
2023-01-29T00:11:44.142Z,1.38
2023-01-29T00:15:16.458Z,0.87
2023-01-29T00:18:48.384Z,1.25
2023-01-29T00:22:20.388Z,1.75
2023-01-29T00:25:52.143Z,1.10
2023-01-29T00:29:24.484Z,2.07
2023-01-29T00:32:57.194Z,0.63
2023-01-29T00:36:29.449Z,1.80
2023-01-29T00:40:01.193Z,0.47
2023-01-29T00:43:51.749Z,1.00
2023-01-29T00:47:35.576Z,0.88
2023-01-29T00:51:07.602Z,1.40
2023-01-29T00:54:39.568Z,0.82
2023-01-29T00:58:11.337Z,1.40
2023-01-29T01:02:02.002Z,0.45
2023-01-29T01:05:34.473Z,0.87
2023-01-29T01:09:25.793Z,1.42
2023-01-29T01:13:01.270Z,2.03
2023-01-29T01:16:33.625Z,1.03
2023-01-29T01:20:05.920Z,0.73
2023-01-29T01:23:38.171Z,0.63
2023-01-29T01:27:09.943Z,0.70
2023-01-29T01:30:42.295Z,1.30
2023-01-29T01:34:15.073Z,1.10
2023-01-29T01:37:47.560Z,1.00
2023-01-29T01:41:21.847Z,0.80
2023-01-29T01:44:59.305Z,0.52
2023-01-29T01:48:31.195Z,1.23
2023-01-29T01:52:03.403Z,1.20
2023-01-29T01:55:49.310Z,1.15
2023-01-29T01:59:25.511Z,0.45
2023-01-29T02:03:16.019Z,1.00
2023-01-29T02:07:07.020Z,1.95
2023-01-29T02:10:46.910Z,1.42
2023-01-29T02:14:19.341Z,1.35
2023-01-29T02:17:51.202Z,1.70
2023-01-29T02:21:44.593Z,2.00
2023-01-29T02:25:22.225Z,1.35
2023-01-29T02:29:33.882Z,1.20
2023-01-29T02:33:24.531Z,0.88
2023-01-29T02:37:11.944Z,0.82
2023-01-29T02:40:49.315Z,0.50
2023-01-29T02:44:28.575Z,1.75
2023-01-29T02:48:02.397Z,1.45
2023-01-29T02:51:51.722Z,1.17
2023-01-29T02:55:36.205Z,0.23
2023-01-29T02:59:16.806Z,0.35
2023-01-29T03:03:14.453Z,1.00
2023-01-29T03:06:54.730Z,0.97
2023-01-29T03:10:48.862Z,1.00
2023-01-29T03:14:55.779Z,1.42
2023-01-29T03:18:33.004Z,1.43
2023-01-29T03:22:08.881Z,0.68
2023-01-29T03:26:01.951Z,1.52
2023-01-29T03:29:54.899Z,1.27
2023-01-29T03:33:30.243Z,0.43
2023-01-29T03:37:07.710Z,0.80
2023-01-29T03:40:56.843Z,1.00
2023-01-29T03:44:57.115Z,0.80
2023-01-29T03:48:40.799Z,1.48
2023-01-29T03:52:23.685Z,0.98
2023-01-29T03:56:02.692Z,1.27
2023-01-29T03:59:41.293Z,0.95
2023-01-29T04:03:20.912Z,0.57
2023-01-29T04:06:57.724Z,1.27
2023-01-29T04:10:29.961Z,0.70
2023-01-29T04:14:02.397Z,1.00
2023-01-29T04:17:39.761Z,0.43
2023-01-29T04:21:12.976Z,1.00
2023-01-29T04:24:45.456Z,1.15
2023-01-29T04:28:26.077Z,0.82
2023-01-29T04:32:11.094Z,1.50
2023-01-29T04:36:02.077Z,0.82
2023-01-29T04:39:51.969Z,1.17
2023-01-29T04:43:37.193Z,1.02
2023-01-29T04:47:35.935Z,1.03
2023-01-29T04:51:19.131Z,0.82
2023-01-29T04:55:24.525Z,1.77
2023-01-29T04:59:07.404Z,0.87
2023-01-29T05:02:42.247Z,1.02
2023-01-29T05:06:15.950Z,1.48
2023-01-29T05:09:49.941Z,1.30
2023-01-29T05:13:23.632Z,1.15
2023-01-29T05:16:57.842Z,0.70
2023-01-29T05:20:36.572Z,1.13
2023-01-29T05:24:23.591Z,1.50
2023-01-29T05:28:16.764Z,0.95
2023-01-29T05:31:49.098Z,1.60
2023-01-29T05:35:21.049Z,0.60
2023-01-29T05:38:54.089Z,1.98
2023-01-29T05:42:25.860Z,2.33
2023-01-29T05:46:01.645Z,1.90
2023-01-29T05:49:33.508Z,1.88
2023-01-29T05:53:06.399Z,2.13
2023-01-29T05:56:39.278Z,2.25
2023-01-29T06:00:13.154Z,2.73
2023-01-29T06:03:45.264Z,2.15
2023-01-29T06:07:17.908Z,2.08
2023-01-29T06:10:49.613Z,3.17
2023-01-29T06:14:21.783Z,2.00
2023-01-29T06:17:54.762Z,1.15
2023-01-29T06:21:26.794Z,2.10
2023-01-29T06:24:58.820Z,1.55
2023-01-29T06:28:30.569Z,2.08
2023-01-29T06:32:03.129Z,2.10
2023-01-29T06:35:35.271Z,2.30
2023-01-29T06:39:07.019Z,2.63
2023-01-29T06:42:39.208Z,3.40
2023-01-29T06:46:11.625Z,3.03
2023-01-29T06:49:44.890Z,3.45
2023-01-29T06:53:18.996Z,1.77
2023-01-29T06:56:51.784Z,2.47
2023-01-29T07:00:23.952Z,2.25
2023-01-29T07:03:55.783Z,2.92
2023-01-29T07:07:27.833Z,2.70
2023-01-29T07:11:01.094Z,3.40
2023-01-29T07:14:33.144Z,3.42
2023-01-29T07:18:12.164Z,2.95
2023-01-29T07:21:43.934Z,3.00
2023-01-29T07:25:16.144Z,3.42
2023-01-29T07:28:48.026Z,2.58
2023-01-29T07:32:21.760Z,3.37
2023-01-29T07:35:55.370Z,3.15
2023-01-29T07:39:27.526Z,3.22
2023-01-29T07:43:04.330Z,2.50
2023-01-29T07:46:36.120Z,2.67
2023-01-29T07:50:08.753Z,3.05
2023-01-29T07:53:40.605Z,3.10
2023-01-29T07:57:13.008Z,4.73
2023-01-29T08:00:46.082Z,4.80
2023-01-29T08:04:18.191Z,4.40
2023-01-29T08:08:05.694Z,5.23
2023-01-29T08:11:38.922Z,2.42
2023-01-29T08:15:11.496Z,3.78
2023-01-29T08:18:46.269Z,5.18
2023-01-29T08:22:18.667Z,2.97
2023-01-29T08:25:50.564Z,3.10
2023-01-29T08:29:22.910Z,3.78
2023-01-29T08:32:54.826Z,3.23
2023-01-29T08:36:27.587Z,4.13
2023-01-29T08:39:59.398Z,3.05
2023-01-29T08:43:31.999Z,2.73
2023-01-29T08:47:04.418Z,2.60
2023-01-29T08:50:37.696Z,2.50
2023-01-29T08:54:09.423Z,4.05
2023-01-29T08:57:41.621Z,2.80
2023-01-29T09:01:17.462Z,4.05
2023-01-29T09:04:49.826Z,2.40
2023-01-29T09:08:22.304Z,3.90
2023-01-29T09:11:55.087Z,4.18
2023-01-29T09:15:27.153Z,3.58
2023-01-29T09:18:59.459Z,2.67
2023-01-29T09:22:32.155Z,3.75
2023-01-29T09:26:04.147Z,2.70
2023-01-29T09:29:36.310Z,4.22
2023-01-29T09:33:08.351Z,2.47
2023-01-29T09:36:40.432Z,4.10
2023-01-29T09:40:25.754Z,3.58
2023-01-29T09:44:04.916Z,4.07
2023-01-29T09:47:37.563Z,3.58
2023-01-29T09:51:32.196Z,2.72
2023-01-29T09:55:18.999Z,3.37
2023-01-29T09:58:52.096Z,2.88
2023-01-29T10:02:51.284Z,2.55
2023-01-29T10:06:35.267Z,2.83
2023-01-29T10:10:29.575Z,3.10
2023-01-29T10:14:13.052Z,4.88
2023-01-29T10:17:50.605Z,2.53
2023-01-29T10:22:09.584Z,3.53
2023-01-29T10:25:42.807Z,3.85
2023-01-29T10:29:20.346Z,2.70
2023-01-29T10:32:54.628Z,4.50
2023-01-29T10:36:33.186Z,2.65
2023-01-29T10:40:23.984Z,4.93
2023-01-29T10:44:22.481Z,3.90
2023-01-29T10:48:40.735Z,2.80
2023-01-29T10:52:40.537Z,4.20
2023-01-29T10:56:24.022Z,3.08
2023-01-29T11:00:12.615Z,4.03
2023-01-29T11:03:44.403Z,3.40
2023-01-29T11:07:19.567Z,4.38
2023-01-29T11:11:14.021Z,5.33
2023-01-29T11:14:53.396Z,4.97
2023-01-29T11:18:25.145Z,4.53
2023-01-29T11:22:00.138Z,3.85
2023-01-29T11:25:35.455Z,2.30
2023-01-29T11:29:30.464Z,5.53
2023-01-29T11:33:05.355Z,3.95
2023-01-29T11:36:39.680Z,3.77
2023-01-29T11:40:20.685Z,4.25
2023-01-29T11:43:52.907Z,4.32
2023-01-29T11:47:29.905Z,3.03
2023-01-29T11:51:02.864Z,5.93
2023-01-29T11:54:41.887Z,5.82
2023-01-29T11:58:19.229Z,6.15
2023-01-29T12:01:51.999Z,4.00
2023-01-29T12:05:27.243Z,3.78
2023-01-29T12:09:01.476Z,3.40
2023-01-29T12:12:41.670Z,4.30
2023-01-29T12:16:23.821Z,3.88
2023-01-29T12:20:03.878Z,6.97
2023-01-29T12:23:55.129Z,5.87
2023-01-29T12:27:48.411Z,4.32
2023-01-29T12:31:23.399Z,4.20
2023-01-29T12:35:06.245Z,5.05
2023-01-29T12:38:38.476Z,3.37
2023-01-29T12:42:19.383Z,5.28
2023-01-29T12:45:55.318Z,5.20
2023-01-29T12:49:33.143Z,5.80
2023-01-29T12:53:28.201Z,4.47
2023-01-29T12:57:04.784Z,5.63
2023-01-29T13:00:43.387Z,2.80
2023-01-29T13:04:26.444Z,5.65
2023-01-29T13:08:05.224Z,5.05
2023-01-29T13:11:42.092Z,4.57
2023-01-29T13:15:38.668Z,4.93
2023-01-29T13:19:32.009Z,5.45
2023-01-29T13:23:17.776Z,4.43
2023-01-29T13:26:50.246Z,3.80
2023-01-29T13:30:28.441Z,5.65
2023-01-29T13:34:14.195Z,2.78
2023-01-29T13:37:55.401Z,3.50
2023-01-29T13:41:43.679Z,4.53
2023-01-29T13:45:25.348Z,4.80
2023-01-29T13:49:00.947Z,2.78
2023-01-29T13:52:44.313Z,3.87
2023-01-29T13:56:39.693Z,4.13
2023-01-29T14:00:21.009Z,3.67
2023-01-29T14:04:04.814Z,5.57
2023-01-29T14:07:46.944Z,4.65
2023-01-29T14:11:21.896Z,5.28
2023-01-29T14:14:57.532Z,2.97
2023-01-29T14:18:30.988Z,4.43
2023-01-29T14:22:04.809Z,4.43
2023-01-29T14:25:41.146Z,5.15
2023-01-29T14:29:16.481Z,4.90
2023-01-29T14:32:51.673Z,5.32
2023-01-29T14:36:27.122Z,6.20
2023-01-29T14:40:11.965Z,5.07
2023-01-29T14:43:44.011Z,3.53
2023-01-29T14:47:43.269Z,4.85
2023-01-29T14:51:17.700Z,7.10
2023-01-29T14:54:51.322Z,4.38
2023-01-29T14:58:26.787Z,4.13
2023-01-29T15:02:05.336Z,4.40
2023-01-29T15:05:38.993Z,5.30
2023-01-29T15:09:11.091Z,4.45
2023-01-29T15:12:52.758Z,4.13
2023-01-29T15:16:31.143Z,1.80
2023-01-29T15:20:33.565Z,6.65
2023-01-29T15:24:07.214Z,4.32
2023-01-29T15:27:42.907Z,6.90
2023-01-29T15:31:18.431Z,7.05
2023-01-29T15:34:51.410Z,6.60
2023-01-29T15:38:26.867Z,6.50
2023-01-29T15:42:12.558Z,6.03
2023-01-29T15:45:45.886Z,6.35
2023-01-29T15:49:25.746Z,6.50
2023-01-29T15:53:00.395Z,4.13
2023-01-29T15:56:40.514Z,5.07
2023-01-29T16:00:22.995Z,5.32
2023-01-29T16:03:56.234Z,5.63
2023-01-29T16:07:30.514Z,3.22
2023-01-29T16:11:05.309Z,4.13
2023-01-29T16:14:37.978Z,4.18
2023-01-29T16:18:24.024Z,3.67
2023-01-29T16:22:00.261Z,7.03
2023-01-29T16:25:34.947Z,3.85
2023-01-29T16:29:15.563Z,3.90
2023-01-29T16:32:48.359Z,4.18
2023-01-29T16:36:24.579Z,3.28
2023-01-29T16:39:57.360Z,4.00
2023-01-29T16:43:37.524Z,4.65
2023-01-29T16:47:20.633Z,3.83
2023-01-29T16:51:04.468Z,5.45
2023-01-29T16:54:42.881Z,5.70
2023-01-29T16:58:22.042Z,6.28
2023-01-29T17:01:55.725Z,5.32
2023-01-29T17:05:31.320Z,5.50
2023-01-29T17:09:05.133Z,6.78
2023-01-29T17:12:39.759Z,5.38
2023-01-29T17:16:23.477Z,5.33
2023-01-29T17:19:55.595Z,6.95
2023-01-29T17:23:27.399Z,6.20
2023-01-29T17:27:01.527Z,9.57
2023-01-29T17:30:37.238Z,6.83
2023-01-29T17:34:16.806Z,7.57
2023-01-29T17:37:49.001Z,6.97
2023-01-29T17:41:27.793Z,4.47
2023-01-29T17:44:59.831Z,5.03
2023-01-29T17:48:31.680Z,5.22
2023-01-29T17:52:04.436Z,4.57
2023-01-29T17:55:36.262Z,6.68
2023-01-29T17:59:16.385Z,6.53
2023-01-29T18:02:48.779Z,6.72
2023-01-29T18:06:28.120Z,4.53
2023-01-29T18:10:01.916Z,6.72
2023-01-29T18:13:36.550Z,7.25
2023-01-29T18:17:11.899Z,5.13
2023-01-29T18:20:53.221Z,6.45
2023-01-29T18:24:31.883Z,7.13
2023-01-29T18:28:13.926Z,3.23
2023-01-29T18:31:54.404Z,4.45
2023-01-29T18:35:34.763Z,4.03
2023-01-29T18:39:15.667Z,4.00
2023-01-29T18:42:50.676Z,5.83
2023-01-29T18:46:29.191Z,3.42
2023-01-29T18:50:13.011Z,3.83
2023-01-29T18:53:53.229Z,7.60
2023-01-29T18:58:27.116Z,4.30
2023-01-29T19:01:29.963Z,5.20
2023-01-29T19:05:06.023Z,8.23
2023-01-29T19:08:46.355Z,5.93
2023-01-29T19:12:32.722Z,4.93
2023-01-29T19:16:28.020Z,5.68
2023-01-29T19:20:05.276Z,7.83
2023-01-29T19:23:38.065Z,6.20
2023-01-29T19:27:11.757Z,4.57
2023-01-29T19:30:45.139Z,5.37
2023-01-29T19:34:17.798Z,5.10
2023-01-29T19:37:56.003Z,5.47
2023-01-29T19:41:28.965Z,5.03
2023-01-29T19:45:49.901Z,4.68
2023-01-29T19:49:08.001Z,4.60
2023-01-29T19:52:51.277Z,4.63
2023-01-29T19:56:24.114Z,3.23
2023-01-29T19:59:57.699Z,4.10
2023-01-29T20:03:30.286Z,5.88
2023-01-29T20:07:02.367Z,4.93
2023-01-29T20:10:34.504Z,5.88
2023-01-29T20:14:06.608Z,4.30
2023-01-29T20:17:39.628Z,5.40
2023-01-29T20:21:13.999Z,4.47
2023-01-29T20:24:46.735Z,6.10
2023-01-29T20:28:19.522Z,2.88
2023-01-29T20:31:51.386Z,4.93
2023-01-29T20:35:24.159Z,6.55
2023-01-29T20:38:56.209Z,6.05
2023-01-29T20:42:28.581Z,3.70
2023-01-29T20:46:01.336Z,1.33
2023-01-29T20:49:34.143Z,5.35
2023-01-29T20:53:08.221Z,6.17
2023-01-29T20:56:45.317Z,5.38
2023-01-29T21:00:20.238Z,4.65
2023-01-29T21:03:52.402Z,4.30
2023-01-29T21:07:24.979Z,5.63
2023-01-29T21:10:57.984Z,4.25
2023-01-29T21:14:30.223Z,4.95
2023-01-29T21:18:04.525Z,3.43
2023-01-29T21:21:36.456Z,8.18
2023-01-29T21:25:08.842Z,3.58
2023-01-29T21:28:40.733Z,3.77
2023-01-29T21:32:13.776Z,4.75
2023-01-29T21:35:45.627Z,5.15
2023-01-29T21:39:17.912Z,5.13
2023-01-29T21:43:07.958Z,7.50
2023-01-29T21:46:40.085Z,7.93
2023-01-29T21:50:12.592Z,9.32
2023-01-29T21:53:44.502Z,5.17
2023-01-29T21:57:17.431Z,4.97
2023-01-29T22:00:49.711Z,4.10
2023-01-29T22:04:26.073Z,4.60
2023-01-29T22:07:58.282Z,3.50
2023-01-29T22:11:30.498Z,3.90
2023-01-29T22:15:02.660Z,4.72
2023-01-29T22:18:34.826Z,4.00
2023-01-29T22:22:07.997Z,3.47
2023-01-29T22:25:39.905Z,3.72
2023-01-29T22:29:13.075Z,3.20
2023-01-29T22:32:45.096Z,5.18
2023-01-29T22:36:17.345Z,5.03
2023-01-29T22:39:49.333Z,2.40
2023-01-29T22:43:21.728Z,6.68
2023-01-29T22:46:54.373Z,2.90
2023-01-29T22:50:26.573Z,4.53
2023-01-29T22:53:58.539Z,4.50
2023-01-29T22:57:30.708Z,4.13
2023-01-29T23:01:02.499Z,4.63
2023-01-29T23:04:35.023Z,2.60
2023-01-29T23:08:06.843Z,4.05
2023-01-29T23:11:38.817Z,4.45
2023-01-29T23:15:10.691Z,6.30
2023-01-29T23:18:43.912Z,4.95
2023-01-29T23:22:15.651Z,3.53
2023-01-29T23:26:06.002Z,5.63
2023-01-29T23:29:37.808Z,6.50
2023-01-29T23:33:12.139Z,3.72
2023-01-29T23:36:44.287Z,3.25
2023-01-29T23:40:16.839Z,5.13
2023-01-29T23:43:49.021Z,3.65
2023-01-29T23:47:21.001Z,4.28
2023-01-29T23:50:53.142Z,3.93
2023-01-29T23:54:24.960Z,2.92
2023-01-29T23:57:56.934Z,5.50
